Tampa, FL (33614)

8:29 AM EDT on April 30, 2017 (GMT -0400)
Twin Lakes | | Change Station

Elev 35 ft 28.03 °N, 82.49 °W | Updated 18 seconds ago

Overcast
Overcast
75.2 °F
Feels Like 74 °F
N
3.1
Wind Variable Wind from ENE
Gusts 6.3 mph

Today
High -- | Low -- °F
--% Chance of Precip.
Yesterday
High -- | Low -- °F
Precip. -- in
Pressure 30.11 in
Visibility 10.0 miles
Clouds Few 1600 ft
Mostly Cloudy 7000 ft
Overcast 26000 ft
Heat Index 74 °F
Dew Point 72 °F
Humidity 91%
Rainfall 0.00 in
Snow Depth Not available.
6:50 AM 8:04 PM
Waxing Crescent, 22% visible
METAR KTPA 301153Z 13007G15KT 10SM FEW016 BKN070 OVC260 24/21 A3011 RMK AO2 SLP195 BINOVC T02440211 10250 20244 51007
Pressure 30.11 in
Visibility 10.0 miles
Clouds Few 1600 ft
Mostly Cloudy 7000 ft
Overcast 26000 ft
Heat Index 74 °F
Dew Point 72 °F
Humidity 91%
Rainfall 0.00 in
Snow Depth Not available.
6:50 AM 8:04 PM
Waxing Crescent, 22% visible
METAR KTPA 301153Z 13007G15KT 10SM FEW016 BKN070 OVC260 24/21 A3011 RMK AO2 SLP195 BINOVC T02440211 10250 20244 51007

Get Severe Weather Alerts

Thanks for signing up!

Be on the lookout for a verification email in your inbox.

You'll start receiving the daily forecast at 8 AM.

×

10-Day Weather Forecast

Almanac

Astronomy

Apr. 30, 2017 Rise Set
Actual Time
Civil Twilight
Nautical Twilight
Astronomical Twilight
Moon
Length of Visible Light
Length of Day
Tomorrow will be .
, % of the Moon is Illuminated

Today's Extremes

State Highs State Lows

Community

WunderPhotos

WunderBlog® & News

Nearby

Air Quality

  Air Quality AQ Index Pollutant
Not available.

Snow Depth

Station Depth Elevation

Earthquake Activity

City Distance Mag. Time & Date
Minimum magnitude displayed is 2.5.

Coastal Water Temperatures

Place Temperature

Stations

Nearby Weather Stations

Station Location Temp. Windchill Dew Point Humidity Wind Precip. Elev Updated Type
                   

Watches & Warnings

There are currently no watches in effect.